Time;durP1;ratioP1;P1;durP2;ratioP2;P2;SDS_P1;SDS_P2;PMS_P1;PMS_P2;Temp;Humidity;BMP_temperature;BMP_pressure;BME280_temperature;BME280_humidity;BME280_pressure;Samples;Min_cycle;Max_cycle;Signal;HPM_P1;HPM_P2
2023/06/29 00:00:19;;;;;;;;;;;24.70;45.60;;;;;;6307609;22;19907;-70
2023/06/29 00:02:45;;;;;;;;;;;24.70;45.70;;;;;;6307571;22;19907;-70
2023/06/29 00:05:11;;;;;;;;;;;24.70;45.90;;;;;;6280577;22;19907;-70
2023/06/29 00:07:36;;;;;;;;;;;24.60;46.30;;;;;;6307521;22;19906;-70
2023/06/29 00:10:02;;;;;;;;;;;24.60;46.30;;;;;;6307580;22;19914;-70
2023/06/29 00:12:27;;;;;;;;;;;24.60;46.50;;;;;;6307484;22;19911;-69
2023/06/29 00:14:53;;;;;;;;;;;24.60;46.60;;;;;;6307242;22;19907;-69
2023/06/29 00:17:20;;;;;;;;;;;24.50;46.60;;;;;;6307306;22;19915;-69
2023/06/29 00:19:47;;;;;;;;;;;24.50;46.70;;;;;;6307629;22;19914;-69
2023/06/29 00:22:13;;;;;;;;;;;24.50;47.00;;;;;;6307521;22;20268;-69
2023/06/29 00:24:42;;;;;;;;;;;24.40;46.90;;;;;;6307333;22;20325;-68
2023/06/29 00:27:08;;;;;;;;;;;24.40;47.10;;;;;;6307140;22;20396;-68
2023/06/29 00:29:35;;;;;;;;;;;24.40;47.20;;;;;;6306935;22;19919;-69
2023/06/29 00:32:01;;;;;;;;;;;24.40;47.30;;;;;;6307322;22;20419;-69
2023/06/29 00:34:26;;;;;;;;;;;24.40;47.30;;;;;;6307202;22;19907;-69
2023/06/29 00:36:52;;;;;;;;;;;24.40;47.30;;;;;;6307273;22;19922;-68
2023/06/29 00:39:17;;;;;;;;;;;24.30;47.50;;;;;;6307533;22;20355;-69
2023/06/29 00:41:43;;;;;;;;;;;24.30;47.70;;;;;;6307148;22;19934;-69
2023/06/29 00:44:08;;;;;;;;;;;24.30;47.70;;;;;;6307463;22;19907;-69
2023/06/29 00:46:33;;;;;;;;;;;24.30;47.80;;;;;;6306781;22;19906;-70
2023/06/29 00:48:59;;;;;;;;;;;24.30;48.10;;;;;;6307155;22;19911;-69
2023/06/29 00:51:25;;;;;;;;;;;24.30;48.10;;;;;;6306896;22;19938;-69
2023/06/29 00:53:51;;;;;;;;;;;24.30;48.00;;;;;;6307637;22;19907;-69
2023/06/29 00:56:16;;;;;;;;;;;24.30;48.00;;;;;;6306989;22;20278;-69
2023/06/29 00:58:42;;;;;;;;;;;24.30;47.90;;;;;;6307340;22;20228;-69
2023/06/29 01:01:08;;;;;;;;;;;24.30;47.80;;;;;;6279508;22;19918;-68
2023/06/29 01:03:33;;;;;;;;;;;24.30;47.70;;;;;;6306690;22;19915;-68
2023/06/29 01:06:04;;;;;;;;;;;24.30;47.70;;;;;;6279419;22;19922;-69
2023/06/29 01:08:33;;;;;;;;;;;24.30;47.70;;;;;;6307177;22;19918;-69
2023/06/29 01:11:01;;;;;;;;;;;24.20;47.80;;;;;;6306794;22;19907;-69
2023/06/29 01:13:27;;;;;;;;;;;24.20;47.80;;;;;;6307531;22;20309;-69
2023/06/29 01:15:52;;;;;;;;;;;24.20;48.00;;;;;;6306596;22;19968;-69
2023/06/29 01:18:18;;;;;;;;;;;24.20;48.00;;;;;;6307409;22;20315;-69
2023/06/29 01:20:44;;;;;;;;;;;24.20;48.10;;;;;;6306494;22;19907;-70
2023/06/29 01:23:11;;;;;;;;;;;24.10;48.00;;;;;;6307126;22;19993;-69
2023/06/29 01:25:36;;;;;;;;;;;24.00;48.00;;;;;;6306629;22;19907;-69
2023/06/29 01:28:09;;;;;;;;;;;23.90;48.10;;;;;;6306924;22;20304;-70
2023/06/29 01:30:39;;;;;;;;;;;23.90;48.10;;;;;;6306689;22;20337;-69
2023/06/29 01:33:05;;;;;;;;;;;23.80;48.30;;;;;;6306930;22;20025;-69
2023/06/29 01:35:31;;;;;;;;;;;23.80;48.40;;;;;;6306466;22;19911;-71
2023/06/29 01:37:59;;;;;;;;;;;23.70;48.60;;;;;;6307094;22;20364;-69
2023/06/29 01:40:26;;;;;;;;;;;23.60;48.90;;;;;;6306693;22;19907;-69
2023/06/29 01:42:52;;;;;;;;;;;23.60;48.80;;;;;;6306439;22;20567;-70
2023/06/29 01:45:19;;;;;;;;;;;23.50;48.90;;;;;;6306286;22;20351;-69
2023/06/29 01:47:44;;;;;;;;;;;23.40;49.10;;;;;;6306440;22;19918;-70
2023/06/29 01:50:09;;;;;;;;;;;23.40;49.10;;;;;;6306426;22;19907;-69
2023/06/29 01:52:35;;;;;;;;;;;23.30;49.30;;;;;;6278789;22;19907;-70
2023/06/29 01:55:00;;;;;;;;;;;23.30;49.50;;;;;;6306230;22;20218;-69
2023/06/29 01:57:26;;;;;;;;;;;23.30;49.60;;;;;;6306447;22;19906;-69
2023/06/29 01:59:51;;;;;;;;;;;23.20;49.60;;;;;;6306167;22;19917;-70
2023/06/29 02:02:17;;;;;;;;;;;23.20;49.90;;;;;;6306006;22;19976;-70
2023/06/29 02:04:42;;;;;;;;;;;23.10;50.10;;;;;;6306273;22;19976;-69
2023/06/29 02:07:08;;;;;;;;;;;23.10;50.30;;;;;;6306329;22;19907;-71
2023/06/29 02:09:33;;;;;;;;;;;23.00;50.50;;;;;;6306468;22;19964;-70
2023/06/29 02:11:58;;;;;;;;;;;23.00;50.60;;;;;;6305635;22;20036;-70
2023/06/29 02:14:24;;;;;;;;;;;23.00;50.80;;;;;;6306218;22;19914;-71
2023/06/29 02:16:50;;;;;;;;;;;22.90;50.70;;;;;;6306249;22;19903;-70
2023/06/29 02:19:16;;;;;;;;;;;22.90;50.60;;;;;;6306096;22;20004;-70
2023/06/29 02:21:41;;;;;;;;;;;22.90;50.50;;;;;;6306212;22;20324;-70
2023/06/29 02:24:07;;;;;;;;;;;22.90;50.60;;;;;;6306332;22;20595;-70
2023/06/29 02:26:32;;;;;;;;;;;22.90;50.70;;;;;;6306233;22;19926;-70
2023/06/29 02:28:57;;;;;;;;;;;22.90;50.60;;;;;;6306099;22;19914;-71
2023/06/29 02:31:23;;;;;;;;;;;23.00;50.80;;;;;;6306247;22;19903;-70
2023/06/29 02:33:49;;;;;;;;;;;22.90;50.80;;;;;;6306556;22;20233;-70
2023/06/29 02:36:15;;;;;;;;;;;22.90;50.80;;;;;;6306035;22;19967;-71
2023/06/29 02:38:41;;;;;;;;;;;23.00;50.80;;;;;;6306703;22;19915;-71
2023/06/29 02:41:06;;;;;;;;;;;23.00;50.70;;;;;;6306231;22;19911;-70
2023/06/29 02:43:33;;;;;;;;;;;23.00;50.60;;;;;;6306556;22;19911;-70
2023/06/29 02:45:59;;;;;;;;;;;23.00;50.60;;;;;;6306035;22;19913;-70
2023/06/29 02:48:25;;;;;;;;;;;23.00;50.60;;;;;;6306362;22;20372;-70
2023/06/29 02:50:50;;;;;;;;;;;23.00;50.70;;;;;;6305960;22;19933;-70
2023/06/29 02:53:16;;;;;;;;;;;23.10;50.70;;;;;;6306421;22;19907;-70
2023/06/29 02:55:41;;;;;;;;;;;23.00;50.80;;;;;;6305981;22;19915;-70
2023/06/29 02:58:07;;;;;;;;;;;23.10;50.70;;;;;;6306268;22;20308;-70
2023/06/29 03:00:32;;;;;;;;;;;23.10;50.70;;;;;;6305902;22;20318;-70
2023/06/29 03:02:58;;;;;;;;;;;23.10;50.70;;;;;;6278288;22;20311;-71
2023/06/29 03:05:23;;;;;;;;;;;23.10;50.60;;;;;;6305682;22;19907;-70
2023/06/29 03:07:49;;;;;;;;;;;23.10;50.60;;;;;;6305864;22;19917;-70
2023/06/29 03:10:14;;;;;;;;;;;23.10;50.70;;;;;;6306108;22;19929;-71
2023/06/29 03:12:41;;;;;;;;;;;23.20;50.60;;;;;;6305994;22;19907;-70
2023/06/29 03:15:07;;;;;;;;;;;23.20;50.70;;;;;;6305775;22;19933;-70
2023/06/29 03:17:32;;;;;;;;;;;23.20;50.80;;;;;;6305977;22;19993;-70
2023/06/29 03:19:58;;;;;;;;;;;23.20;50.90;;;;;;6305709;22;20329;-70
2023/06/29 03:22:25;;;;;;;;;;;23.20;50.90;;;;;;6305814;22;19961;-70
2023/06/29 03:24:50;;;;;;;;;;;23.20;50.90;;;;;;6307788;22;19953;-70
2023/06/29 03:27:16;;;;;;;;;;;23.20;50.90;;;;;;6307975;22;20259;-70
2023/06/29 03:29:41;;;;;;;;;;;23.20;51.10;;;;;;6307579;22;20328;-70
2023/06/29 03:32:07;;;;;;;;;;;23.20;51.20;;;;;;6307526;22;19911;-70
2023/06/29 03:34:32;;;;;;;;;;;23.20;51.40;;;;;;6307426;22;20005;-70
2023/06/29 03:36:57;;;;;;;;;;;23.20;51.30;;;;;;6307593;22;19978;-70
2023/06/29 03:39:23;;;;;;;;;;;23.20;51.40;;;;;;6307406;22;20325;-71
2023/06/29 03:41:48;;;;;;;;;;;23.30;51.50;;;;;;6307749;22;19903;-70
2023/06/29 03:44:14;;;;;;;;;;;23.20;51.50;;;;;;6307380;22;19933;-71
2023/06/29 03:46:40;;;;;;;;;;;23.20;51.60;;;;;;6307383;22;20321;-69
2023/06/29 03:49:05;;;;;;;;;;;23.30;51.60;;;;;;6306987;22;19911;-69
2023/06/29 03:51:31;;;;;;;;;;;23.30;51.60;;;;;;6307270;22;20342;-69
2023/06/29 03:53:56;;;;;;;;;;;23.30;51.60;;;;;;6307747;22;19938;-70
2023/06/29 03:56:21;;;;;;;;;;;23.30;51.60;;;;;;6307452;22;19972;-69
2023/06/29 03:58:47;;;;;;;;;;;23.30;51.50;;;;;;6307666;22;20312;-69
2023/06/29 04:01:12;;;;;;;;;;;23.40;51.50;;;;;;6307213;22;19929;-69
2023/06/29 04:03:38;;;;;;;;;;;23.40;51.50;;;;;;6307673;22;19907;-69
2023/06/29 04:06:03;;;;;;;;;;;23.40;51.60;;;;;;6307058;22;19972;-69
2023/06/29 04:08:29;;;;;;;;;;;23.40;51.50;;;;;;6307794;22;20220;-70
2023/06/29 04:10:54;;;;;;;;;;;23.40;51.60;;;;;;6307684;22;19990;-69
2023/06/29 04:13:20;;;;;;;;;;;23.50;51.70;;;;;;6307865;22;20216;-69
2023/06/29 04:15:45;;;;;;;;;;;23.50;51.60;;;;;;6307277;22;19915;-70
2023/06/29 04:18:11;;;;;;;;;;;23.50;51.80;;;;;;6307673;22;19903;-70
2023/06/29 04:20:36;;;;;;;;;;;23.50;51.80;;;;;;6307072;22;19911;-69
2023/06/29 04:23:02;;;;;;;;;;;23.50;51.90;;;;;;6307472;22;19911;-70
2023/06/29 04:25:27;;;;;;;;;;;23.50;51.80;;;;;;6280274;22;19915;-70
2023/06/29 04:27:53;;;;;;;;;;;23.50;51.80;;;;;;6307414;22;19907;-70
2023/06/29 04:30:18;;;;;;;;;;;23.60;52.00;;;;;;6307419;22;19911;-69
2023/06/29 04:32:44;;;;;;;;;;;23.60;52.10;;;;;;6307440;22;19910;-71
2023/06/29 04:35:10;;;;;;;;;;;23.60;52.10;;;;;;6306447;22;19938;-70
2023/06/29 04:37:40;;;;;;;;;;;23.60;52.00;;;;;;6280043;22;20396;-70
2023/06/29 04:40:06;;;;;;;;;;;23.70;52.10;;;;;;6307186;22;20329;-70
2023/06/29 04:42:32;;;;;;;;;;;23.70;52.30;;;;;;6307775;22;20377;-70
2023/06/29 04:44:59;;;;;;;;;;;23.70;52.10;;;;;;6306993;22;19993;-70
2023/06/29 04:47:25;;;;;;;;;;;23.80;52.00;;;;;;6307071;22;19903;-70
2023/06/29 04:49:51;;;;;;;;;;;23.80;52.00;;;;;;6306839;22;19922;-70
2023/06/29 04:52:18;;;;;;;;;;;23.80;51.90;;;;;;6307360;22;20220;-70
2023/06/29 04:54:44;;;;;;;;;;;23.80;51.90;;;;;;6307038;22;19939;-71
2023/06/29 04:57:12;;;;;;;;;;;23.80;51.90;;;;;;6307142;22;19911;-70
2023/06/29 04:59:37;;;;;;;;;;;23.90;52.00;;;;;;6307050;22;19914;-71
2023/06/29 05:02:03;;;;;;;;;;;23.90;52.00;;;;;;6307362;22;19911;-69
2023/06/29 05:04:29;;;;;;;;;;;23.90;52.00;;;;;;6307014;22;19918;-70
2023/06/29 05:06:54;;;;;;;;;;;24.00;52.00;;;;;;6306864;22;20281;-70
2023/06/29 05:09:20;;;;;;;;;;;24.00;51.90;;;;;;6306686;22;19925;-70
2023/06/29 05:11:45;;;;;;;;;;;24.00;51.90;;;;;;6306811;22;19903;-69
2023/06/29 05:14:11;;;;;;;;;;;24.10;51.90;;;;;;6306672;22;19911;-70
2023/06/29 05:16:36;;;;;;;;;;;24.20;51.80;;;;;;6307030;22;19903;-69
2023/06/29 05:19:02;;;;;;;;;;;24.20;52.10;;;;;;6306773;22;19922;-69
2023/06/29 05:21:28;;;;;;;;;;;24.20;52.00;;;;;;6306747;22;19911;-70
2023/06/29 05:23:54;;;;;;;;;;;24.20;52.10;;;;;;6307005;22;19982;-70
2023/06/29 05:26:19;;;;;;;;;;;24.30;52.00;;;;;;6306660;22;19938;-69
2023/06/29 05:28:45;;;;;;;;;;;24.30;52.00;;;;;;6306442;22;19906;-70
2023/06/29 05:31:10;;;;;;;;;;;24.40;51.90;;;;;;6306926;22;20404;-69
2023/06/29 05:33:36;;;;;;;;;;;24.50;51.90;;;;;;6307081;22;19917;-69
2023/06/29 05:36:02;;;;;;;;;;;24.50;51.80;;;;;;6279156;22;19918;-69
2023/06/29 05:38:29;;;;;;;;;;;24.70;51.80;;;;;;6306966;22;20333;-69
2023/06/29 05:40:55;;;;;;;;;;;24.70;51.70;;;;;;6306730;22;19961;-70
2023/06/29 05:43:21;;;;;;;;;;;24.80;51.60;;;;;;6306948;22;19974;-69
2023/06/29 05:45:47;;;;;;;;;;;24.80;51.50;;;;;;6306452;22;19941;-70
2023/06/29 05:48:12;;;;;;;;;;;25.00;51.40;;;;;;6306635;22;20344;-70
2023/06/29 05:50:38;;;;;;;;;;;25.10;51.20;;;;;;6306457;22;19911;-69
2023/06/29 05:53:04;;;;;;;;;;;25.10;51.30;;;;;;6306739;22;20117;-70
2023/06/29 05:55:29;;;;;;;;;;;25.20;51.30;;;;;;6306578;22;20391;-69
2023/06/29 05:57:54;;;;;;;;;;;25.30;51.20;;;;;;6306294;22;20011;-70
2023/06/29 06:00:20;;;;;;;;;;;25.30;51.20;;;;;;6306519;22;19911;-69
2023/06/29 06:02:45;;;;;;;;;;;25.30;51.10;;;;;;6306651;22;19907;-70
2023/06/29 06:05:13;;;;;;;;;;;25.40;51.00;;;;;;6305824;22;21559;-70
2023/06/29 06:07:39;;;;;;;;;;;25.50;50.90;;;;;;6306645;22;19987;-69
2023/06/29 06:10:04;;;;;;;;;;;25.60;50.80;;;;;;6306503;22;20301;-69
2023/06/29 06:12:30;;;;;;;;;;;25.80;50.60;;;;;;6305667;22;19907;-69
2023/06/29 06:14:56;;;;;;;;;;;25.80;50.40;;;;;;6278846;22;19907;-70
2023/06/29 06:17:21;;;;;;;;;;;26.00;50.20;;;;;;6303981;22;19911;-70
2023/06/29 06:19:47;;;;;;;;;;;26.00;50.10;;;;;;6306576;22;19907;-69
2023/06/29 06:22:12;;;;;;;;;;;26.10;49.90;;;;;;6306026;22;19911;-70
2023/06/29 06:24:38;;;;;;;;;;;26.20;49.80;;;;;;6306569;22;19911;-69
2023/06/29 06:27:03;;;;;;;;;;;26.30;49.60;;;;;;6306030;22;19942;-69
2023/06/29 06:29:29;;;;;;;;;;;26.40;49.50;;;;;;6306135;22;19911;-70
2023/06/29 06:31:54;;;;;;;;;;;26.50;49.20;;;;;;6306658;22;19914;-70
2023/06/29 06:34:20;;;;;;;;;;;26.50;49.10;;;;;;6306069;22;19907;-69
2023/06/29 06:36:46;;;;;;;;;;;26.60;49.00;;;;;;6306272;22;20308;-70
2023/06/29 06:39:11;;;;;;;;;;;26.70;48.80;;;;;;6306223;22;19969;-69
2023/06/29 06:41:37;;;;;;;;;;;26.80;48.70;;;;;;6278714;22;20271;-69
2023/06/29 06:44:02;;;;;;;;;;;27.00;48.60;;;;;;6306069;22;19914;-70
2023/06/29 06:46:28;;;;;;;;;;;27.10;48.40;;;;;;6305882;22;20209;-71
2023/06/29 06:48:53;;;;;;;;;;;27.20;48.10;;;;;;6307149;22;20228;-69
2023/06/29 06:51:19;;;;;;;;;;;27.20;47.90;;;;;;6278428;22;19907;-70
2023/06/29 06:53:44;;;;;;;;;;;27.30;47.70;;;;;;6305998;22;19907;-70
2023/06/29 06:56:10;;;;;;;;;;;27.30;47.60;;;;;;6306031;22;19921;-70
2023/06/29 06:58:35;;;;;;;;;;;27.40;47.50;;;;;;6306410;22;19906;-70
2023/06/29 07:01:01;;;;;;;;;;;27.50;47.30;;;;;;6306044;22;19985;-70
2023/06/29 07:03:26;;;;;;;;;;;27.60;47.20;;;;;;6306369;22;19915;-69
2023/06/29 07:05:53;;;;;;;;;;;27.80;47.00;;;;;;6305154;22;19918;-70
2023/06/29 07:08:19;;;;;;;;;;;27.90;46.80;;;;;;6303263;22;20347;-70
2023/06/29 07:10:44;;;;;;;;;;;28.00;46.60;;;;;;6305926;22;19907;-70
2023/06/29 07:13:10;;;;;;;;;;;28.20;46.40;;;;;;6306432;22;20224;-70
2023/06/29 07:15:36;;;;;;;;;;;28.40;46.10;;;;;;6278052;22;19942;-70
2023/06/29 07:18:01;;;;;;;;;;;28.50;46.00;;;;;;6303237;22;19906;-72
2023/06/29 07:20:27;;;;;;;;;;;28.70;45.80;;;;;;6306205;22;19914;-70
2023/06/29 07:22:52;;;;;;;;;;;28.80;45.60;;;;;;6306071;22;19907;-70
2023/06/29 07:25:18;;;;;;;;;;;28.90;45.50;;;;;;6305522;22;19960;-69
2023/06/29 07:27:45;;;;;;;;;;;29.10;45.40;;;;;;6305524;22;19911;-71
2023/06/29 07:30:10;;;;;;;;;;;29.20;45.00;;;;;;6305456;22;19939;-68
2023/06/29 07:32:36;;;;;;;;;;;29.20;44.60;;;;;;6305700;22;19911;-69
2023/06/29 07:35:01;;;;;;;;;;;29.30;44.30;;;;;;6305876;22;19915;-69
2023/06/29 07:37:27;;;;;;;;;;;29.30;44.10;;;;;;6305785;22;19907;-69
2023/06/29 07:39:52;;;;;;;;;;;29.40;43.60;;;;;;6278272;22;19986;-69
2023/06/29 07:42:17;;;;;;;;;;;29.40;43.30;;;;;;6305705;22;19964;-69
2023/06/29 07:44:43;;;;;;;;;;;29.60;43.40;;;;;;6305763;22;20240;-69
2023/06/29 07:47:08;;;;;;;;;;;29.70;43.30;;;;;;6306034;22;20313;-69
2023/06/29 07:49:34;;;;;;;;;;;29.80;42.70;;;;;;6305844;22;19914;-69
2023/06/29 07:51:59;;;;;;;;;;;29.90;42.40;;;;;;6306073;22;20333;-69
2023/06/29 07:54:25;;;;;;;;;;;30.00;42.30;;;;;;6305719;22;20333;-69
2023/06/29 07:56:50;;;;;;;;;;;30.20;42.00;;;;;;6305432;22;19914;-70
2023/06/29 07:59:15;;;;;;;;;;;30.60;41.80;;;;;;6305595;22;19911;-70
2023/06/29 08:01:41;;;;;;;;;;;30.80;41.20;;;;;;6305867;22;19903;-70
2023/06/29 08:04:07;;;;;;;;;;;31.20;41.10;;;;;;6305770;22;19911;-71
2023/06/29 08:06:33;;;;;;;;;;;31.50;40.80;;;;;;6305819;22;19907;-70
2023/06/29 08:09:00;;;;;;;;;;;31.90;40.30;;;;;;6306078;22;20244;-70
2023/06/29 08:11:26;;;;;;;;;;;32.30;40.00;;;;;;6307573;22;19903;-70
2023/06/29 08:13:51;;;;;;;;;;;32.70;38.70;;;;;;6308349;22;19977;-70
2023/06/29 08:16:17;;;;;;;;;;;32.80;37.30;;;;;;6306479;22;19977;-71
2023/06/29 08:18:42;;;;;;;;;;;33.00;37.00;;;;;;6305731;22;19903;-70
2023/06/29 08:21:10;;;;;;;;;;;33.00;36.40;;;;;;6307442;22;19926;-70
2023/06/29 08:23:35;;;;;;;;;;;33.00;36.40;;;;;;6280470;22;19909;-69
2023/06/29 08:26:02;;;;;;;;;;;33.00;35.40;;;;;;6307128;22;19993;-70
2023/06/29 08:28:28;;;;;;;;;;;32.80;35.40;;;;;;6303722;22;19918;-69
2023/06/29 08:30:53;;;;;;;;;;;32.70;35.00;;;;;;6306760;22;19915;-69
2023/06/29 08:33:18;;;;;;;;;;;32.40;35.40;;;;;;6307353;22;19907;-70
2023/06/29 08:35:44;;;;;;;;;;;32.30;35.80;;;;;;6307034;22;19915;-70
2023/06/29 08:38:09;;;;;;;;;;;32.20;36.00;;;;;;6276927;22;20313;-70
2023/06/29 08:40:35;;;;;;;;;;;32.00;36.00;;;;;;6304566;22;19911;-70
2023/06/29 08:43:01;;;;;;;;;;;31.80;36.30;;;;;;6305130;22;19907;-69
2023/06/29 08:45:26;;;;;;;;;;;31.70;36.60;;;;;;6306742;22;19994;-70
2023/06/29 08:47:53;;;;;;;;;;;31.60;36.80;;;;;;6303246;22;20006;-70
2023/06/29 08:50:20;;;;;;;;;;;31.40;36.90;;;;;;6306104;22;19918;-70
2023/06/29 08:52:46;;;;;;;;;;;31.30;37.10;;;;;;6306784;22;19938;-70
2023/06/29 08:55:11;;;;;;;;;;;31.20;37.30;;;;;;6306831;22;19925;-70
2023/06/29 08:57:38;;;;;;;;;;;31.10;37.40;;;;;;6305433;22;20017;-70
2023/06/29 09:00:04;;;;;;;;;;;31.00;37.60;;;;;;6306852;22;19907;-69
2023/06/29 09:02:30;;;;;;;;;;;31.00;37.70;;;;;;6306963;22;20300;-70
2023/06/29 09:04:56;;;;;;;;;;;30.90;37.70;;;;;;6306983;22;19914;-70
2023/06/29 09:07:21;;;;;;;;;;;30.80;37.80;;;;;;6306980;22;19985;-69
2023/06/29 09:09:47;;;;;;;;;;;30.80;38.00;;;;;;6279576;22;19998;-69
2023/06/29 09:12:12;;;;;;;;;;;30.80;38.00;;;;;;6306986;22;19907;-70
2023/06/29 09:14:44;;;;;;;;;;;30.80;38.00;;;;;;6307035;22;19960;-69
2023/06/29 09:17:14;;;;;;;;;;;30.70;38.00;;;;;;6306667;22;19955;-69
2023/06/29 09:19:42;;;;;;;;;;;30.70;38.10;;;;;;6306945;22;19977;-69
2023/06/29 09:22:07;;;;;;;;;;;30.70;38.20;;;;;;6279186;22;20349;-70
2023/06/29 09:24:33;;;;;;;;;;;30.80;38.30;;;;;;6279336;22;19991;-69
2023/06/29 09:26:59;;;;;;;;;;;30.80;38.30;;;;;;6279063;22;19914;-70
2023/06/29 09:29:24;;;;;;;;;;;30.80;38.20;;;;;;6306520;22;19910;-69
2023/06/29 09:31:53;;;;;;;;;;;30.80;38.20;;;;;;6306918;22;19909;-69
2023/06/29 09:34:22;;;;;;;;;;;30.90;38.10;;;;;;6306452;22;19907;-70
2023/06/29 09:36:48;;;;;;;;;;;30.90;38.00;;;;;;6306731;22;19925;-69
2023/06/29 09:39:14;;;;;;;;;;;30.90;37.90;;;;;;6279462;22;20351;-69
2023/06/29 09:41:46;;;;;;;;;;;30.90;37.90;;;;;;6306382;22;19907;-69
2023/06/29 09:44:13;;;;;;;;;;;31.00;37.90;;;;;;6307204;22;19914;-69
2023/06/29 09:46:41;;;;;;;;;;;31.00;37.80;;;;;;6279136;22;19907;-69
2023/06/29 09:49:10;;;;;;;;;;;31.10;37.70;;;;;;6279023;22;19986;-69
2023/06/29 09:51:35;;;;;;;;;;;31.10;37.70;;;;;;6306344;22;20241;-69
2023/06/29 09:54:01;;;;;;;;;;;31.10;37.70;;;;;;6306581;22;19930;-69
2023/06/29 09:56:28;;;;;;;;;;;31.20;37.70;;;;;;6306302;22;19919;-69
2023/06/29 09:58:54;;;;;;;;;;;31.20;37.40;;;;;;6307073;22;19907;-69
2023/06/29 10:01:20;;;;;;;;;;;31.20;37.50;;;;;;6306419;22;20245;-69
2023/06/29 10:03:45;;;;;;;;;;;31.20;37.60;;;;;;6307062;22;19907;-69
2023/06/29 10:06:12;;;;;;;;;;;31.30;37.60;;;;;;6306407;22;19911;-69
2023/06/29 10:08:42;;;;;;;;;;;31.50;37.40;;;;;;6306070;22;20266;-68
2023/06/29 10:11:07;;;;;;;;;;;31.70;37.20;;;;;;6306212;22;20368;-69
2023/06/29 10:13:37;;;;;;;;;;;31.80;37.00;;;;;;6306735;22;19958;-70
2023/06/29 10:16:02;;;;;;;;;;;32.10;36.80;;;;;;6306390;22;20244;-69
2023/06/29 10:18:32;;;;;;;;;;;32.40;36.80;;;;;;6306794;22;19911;-70
2023/06/29 10:20:57;;;;;;;;;;;32.80;36.60;;;;;;6306321;22;19907;-70
2023/06/29 10:23:24;;;;;;;;;;;33.30;36.10;;;;;;6306655;22;19929;-71
2023/06/29 10:25:50;;;;;;;;;;;33.60;35.60;;;;;;6306570;22;19913;-71
2023/06/29 10:28:16;;;;;;;;;;;33.80;35.10;;;;;;6306515;22;20309;-71
2023/06/29 10:30:46;;;;;;;;;;;34.00;34.60;;;;;;6306909;22;19907;-70
2023/06/29 10:33:12;;;;;;;;;;;34.20;34.20;;;;;;6305589;22;19918;-69
2023/06/29 10:35:38;;;;;;;;;;;34.20;33.70;;;;;;6306291;22;20037;-69
2023/06/29 10:38:11;;;;;;;;;;;34.30;33.40;;;;;;6306438;22;19911;-70
2023/06/29 10:40:45;;;;;;;;;;;34.20;33.50;;;;;;6306012;22;19985;-69
2023/06/29 10:43:10;;;;;;;;;;;34.20;33.70;;;;;;6306416;22;19950;-69
2023/06/29 10:45:37;;;;;;;;;;;34.30;33.20;;;;;;6305889;22;19911;-69
2023/06/29 10:48:03;;;;;;;;;;;34.20;33.20;;;;;;6306138;22;19911;-70
2023/06/29 10:50:29;;;;;;;;;;;34.20;33.30;;;;;;6305686;22;19959;-70
2023/06/29 10:52:59;;;;;;;;;;;34.20;33.20;;;;;;6278844;22;20325;-70
2023/06/29 10:55:26;;;;;;;;;;;34.20;33.20;;;;;;6305752;22;20217;-70
2023/06/29 10:57:53;;;;;;;;;;;34.20;33.30;;;;;;6305957;22;20319;-70
2023/06/29 11:00:19;;;;;;;;;;;34.40;33.40;;;;;;6305653;22;20324;-69
2023/06/29 11:02:46;;;;;;;;;;;34.60;33.50;;;;;;6278417;22;19914;-71
2023/06/29 11:05:15;;;;;;;;;;;34.70;33.20;;;;;;6305951;22;19906;-70
2023/06/29 11:07:41;;;;;;;;;;;34.90;33.00;;;;;;6306019;22;19907;-70
2023/06/29 11:10:07;;;;;;;;;;;35.10;33.00;;;;;;6305842;22;19933;-70
2023/06/29 11:12:32;;;;;;;;;;;35.30;32.30;;;;;;6305668;22;19918;-70
2023/06/29 11:14:58;;;;;;;;;;;35.20;31.50;;;;;;6305932;22;19917;-70
2023/06/29 11:17:23;;;;;;;;;;;35.20;32.00;;;;;;6305684;22;20315;-70
2023/06/29 11:19:50;;;;;;;;;;;35.30;32.40;;;;;;6278223;22;19914;-70
2023/06/29 11:22:18;;;;;;;;;;;35.50;32.40;;;;;;6305562;22;20236;-70
2023/06/29 11:24:44;;;;;;;;;;;35.80;32.30;;;;;;6305584;22;19911;-71
2023/06/29 11:27:09;;;;;;;;;;;36.00;32.20;;;;;;6278337;22;19907;-68
2023/06/29 11:29:35;;;;;;;;;;;36.30;31.90;;;;;;6305590;22;19981;-70
2023/06/29 11:32:01;;;;;;;;;;;36.60;31.60;;;;;;6305973;22;20210;-68
2023/06/29 11:34:26;;;;;;;;;;;36.90;31.20;;;;;;6305490;22;20296;-68
2023/06/29 11:36:52;;;;;;;;;;;37.30;31.20;;;;;;6305646;22;20229;-68
2023/06/29 11:39:18;;;;;;;;;;;37.70;30.90;;;;;;6278158;22;19990;-68
2023/06/29 11:41:46;;;;;;;;;;;37.80;30.30;;;;;;6305619;22;19935;-68
2023/06/29 11:44:11;;;;;;;;;;;38.00;30.20;;;;;;6306164;22;19983;-69
2023/06/29 11:46:37;;;;;;;;;;;38.00;29.90;;;;;;6307709;22;19982;-68
2023/06/29 11:49:06;;;;;;;;;;;37.90;29.40;;;;;;6307397;22;19911;-68
2023/06/29 11:51:33;;;;;;;;;;;37.70;29.40;;;;;;6307440;22;19986;-68
2023/06/29 11:53:59;;;;;;;;;;;37.30;29.50;;;;;;6307484;22;20296;-68
2023/06/29 11:56:34;;;;;;;;;;;37.00;29.70;;;;;;6307256;22;20289;-68
2023/06/29 11:59:06;;;;;;;;;;;36.70;29.90;;;;;;6307544;22;19933;-68
2023/06/29 12:01:32;;;;;;;;;;;36.50;30.30;;;;;;6307296;22;19913;-68
2023/06/29 12:03:57;;;;;;;;;;;36.30;30.60;;;;;;6307768;22;20474;-69
2023/06/29 12:06:23;;;;;;;;;;;36.10;30.80;;;;;;6307669;22;20036;-69
2023/06/29 12:08:51;;;;;;;;;;;35.80;31.00;;;;;;6307892;22;19915;-70
2023/06/29 12:11:18;;;;;;;;;;;35.50;31.20;;;;;;6307304;22;19907;-70
2023/06/29 12:13:45;;;;;;;;;;;35.20;31.50;;;;;;6308189;22;20327;-69
2023/06/29 12:16:10;;;;;;;;;;;34.80;31.60;;;;;;6307622;22;19938;-70
2023/06/29 12:18:36;;;;;;;;;;;34.40;31.90;;;;;;6307947;22;20343;-69
2023/06/29 12:21:01;;;;;;;;;;;34.30;32.10;;;;;;6307181;22;20325;-69
2023/06/29 12:23:27;;;;;;;;;;;34.00;32.40;;;;;;6307795;22;19914;-69
2023/06/29 12:25:52;;;;;;;;;;;33.80;32.70;;;;;;6307191;22;19939;-69
2023/06/29 12:28:18;;;;;;;;;;;33.70;32.70;;;;;;6307593;22;19918;-70
2023/06/29 12:30:44;;;;;;;;;;;33.60;33.00;;;;;;6307559;22;19915;-70
2023/06/29 12:33:10;;;;;;;;;;;33.40;33.10;;;;;;6307800;22;19972;-71
2023/06/29 12:35:35;;;;;;;;;;;33.30;33.30;;;;;;6307118;22;19991;-70
2023/06/29 12:38:01;;;;;;;;;;;33.10;33.60;;;;;;6307428;22;19914;-69
2023/06/29 12:40:27;;;;;;;;;;;33.00;33.70;;;;;;6307368;22;19951;-69
2023/06/29 12:42:53;;;;;;;;;;;32.80;34.00;;;;;;6307356;22;19942;-70
2023/06/29 12:45:19;;;;;;;;;;;32.70;34.20;;;;;;6305573;22;19989;-69
2023/06/29 12:47:45;;;;;;;;;;;32.50;34.40;;;;;;6276610;22;20000;-70
2023/06/29 12:50:10;;;;;;;;;;;32.40;34.60;;;;;;6279542;22;19910;-70
2023/06/29 12:52:36;;;;;;;;;;;32.30;34.80;;;;;;6279964;22;19907;-70
2023/06/29 12:55:01;;;;;;;;;;;32.20;34.80;;;;;;6279397;22;19918;-70
2023/06/29 12:57:28;;;;;;;;;;;32.10;34.90;;;;;;6277619;22;19911;-70
2023/06/29 12:59:58;;;;;;;;;;;32.00;35.00;;;;;;6305724;22;19917;-70
2023/06/29 13:02:24;;;;;;;;;;;31.80;35.00;;;;;;6307278;22;19952;-70
2023/06/29 13:04:49;;;;;;;;;;;31.80;35.10;;;;;;6279803;22;20222;-69
2023/06/29 13:07:17;;;;;;;;;;;31.70;35.20;;;;;;6305744;22;19914;-72
2023/06/29 13:09:47;;;;;;;;;;;31.60;35.40;;;;;;6305776;22;19959;-68
2023/06/29 13:12:14;;;;;;;;;;;31.60;35.40;;;;;;6306993;22;19949;-69
2023/06/29 13:14:43;;;;;;;;;;;31.60;35.40;;;;;;6280046;22;20309;-69
2023/06/29 13:17:09;;;;;;;;;;;31.60;35.50;;;;;;6307375;22;20270;-69
2023/06/29 13:19:36;;;;;;;;;;;31.50;35.60;;;;;;6306463;22;19922;-69
2023/06/29 13:22:03;;;;;;;;;;;31.50;35.70;;;;;;6306883;22;19934;-69
2023/06/29 13:24:28;;;;;;;;;;;31.50;35.90;;;;;;6307067;22;19964;-68
2023/06/29 13:26:54;;;;;;;;;;;31.40;36.60;;;;;;6307073;22;20314;-69
2023/06/29 13:29:19;;;;;;;;;;;31.40;37.00;;;;;;6306852;22;20290;-69
2023/06/29 13:31:45;;;;;;;;;;;31.20;38.20;;;;;;6306537;22;19941;-69
2023/06/29 13:34:10;;;;;;;;;;;30.80;39.30;;;;;;6306882;22;19909;-68
2023/06/29 13:36:36;;;;;;;;;;;30.40;42.50;;;;;;6306565;22;19957;-69
2023/06/29 13:39:02;;;;;;;;;;;30.10;45.30;;;;;;6306958;22;19907;-68
2023/06/29 13:41:35;;;;;;;;;;;29.90;47.70;;;;;;6306964;22;19961;-68
2023/06/29 13:44:01;;;;;;;;;;;29.80;49.60;;;;;;6306711;22;20406;-69
2023/06/29 13:46:26;;;;;;;;;;;29.60;50.90;;;;;;6277059;22;19903;-69
2023/06/29 13:48:52;;;;;;;;;;;29.50;51.40;;;;;;6302873;22;19919;-69
2023/06/29 13:51:17;;;;;;;;;;;29.40;52.00;;;;;;6305983;22;20360;-69
2023/06/29 13:53:42;;;;;;;;;;;29.30;52.20;;;;;;6306969;22;20292;-70
2023/06/29 13:56:08;;;;;;;;;;;29.20;52.20;;;;;;6306238;22;20382;-69
2023/06/29 13:58:33;;;;;;;;;;;29.10;52.10;;;;;;6279437;22;19972;-70
2023/06/29 14:01:00;;;;;;;;;;;29.00;52.10;;;;;;6306000;22;19906;-69
2023/06/29 14:03:25;;;;;;;;;;;28.90;51.80;;;;;;6306362;22;19934;-69
2023/06/29 14:05:51;;;;;;;;;;;28.80;52.00;;;;;;6306166;22;19903;-69
2023/06/29 14:08:17;;;;;;;;;;;28.80;52.50;;;;;;6306605;22;20281;-69